sensor_id;sensor_type;location;lat;lon;timestamp;pressure;altitude;pressure_sealevel;temperature;humidity
67499;BME280;54345;42.670;23.218;2022-10-15T00:00:28;92768.06;;;10.14;100.00
67499;BME280;54345;42.670;23.218;2022-10-15T00:02:54;92757.50;;;10.05;100.00
67499;BME280;54345;42.670;23.218;2022-10-15T00:05:20;92774.75;;;10.13;100.00
67499;BME280;54345;42.670;23.218;2022-10-15T00:07:46;92764.00;;;9.97;100.00
67499;BME280;54345;42.670;23.218;2022-10-15T00:10:13;92762.22;;;9.76;100.00
67499;BME280;54345;42.670;23.218;2022-10-15T00:12:39;92762.13;;;9.87;100.00
67499;BME280;54345;42.670;23.218;2022-10-15T00:15:06;92757.59;;;10.24;100.00
67499;BME280;54345;42.670;23.218;2022-10-15T00:17:33;92762.75;;;9.98;100.00
67499;BME280;54345;42.670;23.218;2022-10-15T00:20:00;92764.94;;;10.05;100.00
67499;BME280;54345;42.670;23.218;2022-10-15T00:22:26;92758.66;;;10.15;100.00
67499;BME280;54345;42.670;23.218;2022-10-15T00:24:52;92760.03;;;10.27;100.00
67499;BME280;54345;42.670;23.218;2022-10-15T00:27:17;92762.50;;;10.25;100.00
67499;BME280;54345;42.670;23.218;2022-10-15T00:29:43;92756.84;;;10.23;100.00
67499;BME280;54345;42.670;23.218;2022-10-15T00:32:08;92755.69;;;10.13;100.00
67499;BME280;54345;42.670;23.218;2022-10-15T00:34:34;92746.13;;;10.07;100.00
67499;BME280;54345;42.670;23.218;2022-10-15T00:36:59;92749.19;;;9.93;100.00
67499;BME280;54345;42.670;23.218;2022-10-15T00:39:25;92741.94;;;10.06;100.00
67499;BME280;54345;42.670;23.218;2022-10-15T00:41:50;92744.38;;;10.09;100.00
67499;BME280;54345;42.670;23.218;2022-10-15T00:46:55;92746.28;;;10.14;100.00
67499;BME280;54345;42.670;23.218;2022-10-15T00:49:32;92759.78;;;10.25;100.00
67499;BME280;54345;42.670;23.218;2022-10-15T00:52:06;92751.13;;;10.27;100.00
67499;BME280;54345;42.670;23.218;2022-10-15T00:54:37;92746.69;;;10.48;100.00
67499;BME280;54345;42.670;23.218;2022-10-15T00:57:06;92754.22;;;10.60;100.00
67499;BME280;54345;42.670;23.218;2022-10-15T00:59:33;92749.28;;;10.11;100.00
67499;BME280;54345;42.670;23.218;2022-10-15T01:02:02;92753.34;;;9.99;100.00
67499;BME280;54345;42.670;23.218;2022-10-15T01:04:29;92743.41;;;10.07;100.00
67499;BME280;54345;42.670;23.218;2022-10-15T01:06:55;92749.47;;;9.89;100.00
67499;BME280;54345;42.670;23.218;2022-10-15T01:09:20;92750.22;;;9.90;100.00
67499;BME280;54345;42.670;23.218;2022-10-15T01:11:48;92743.97;;;9.71;100.00
67499;BME280;54345;42.670;23.218;2022-10-15T01:14:35;92749.19;;;9.93;100.00
67499;BME280;54345;42.670;23.218;2022-10-15T01:17:09;92744.44;;;10.04;100.00
67499;BME280;54345;42.670;23.218;2022-10-15T01:25:31;92743.16;;;9.81;100.00
67499;BME280;54345;42.670;23.218;2022-10-15T01:30:44;92748.59;;;9.81;100.00
67499;BME280;54345;42.670;23.218;2022-10-15T01:33:35;92751.00;;;9.85;100.00
67499;BME280;54345;42.670;23.218;2022-10-15T01:36:51;92749.19;;;9.69;100.00
67499;BME280;54345;42.670;23.218;2022-10-15T01:39:33;92751.19;;;9.63;100.00
67499;BME280;54345;42.670;23.218;2022-10-15T01:42:10;92743.78;;;9.63;100.00
67499;BME280;54345;42.670;23.218;2022-10-15T01:44:46;92740.53;;;9.65;100.00
67499;BME280;54345;42.670;23.218;2022-10-15T01:47:31;92748.00;;;9.29;100.00
67499;BME280;54345;42.670;23.218;2022-10-15T01:49:59;92747.06;;;9.56;100.00
67499;BME280;54345;42.670;23.218;2022-10-15T01:52:30;92745.75;;;9.63;100.00
67499;BME280;54345;42.670;23.218;2022-10-15T01:54:58;92736.50;;;9.77;100.00
67499;BME280;54345;42.670;23.218;2022-10-15T01:57:26;92733.25;;;9.78;100.00
67499;BME280;54345;42.670;23.218;2022-10-15T01:59:54;92742.50;;;9.70;100.00
67499;BME280;54345;42.670;23.218;2022-10-15T02:02:20;92743.19;;;9.76;100.00
67499;BME280;54345;42.670;23.218;2022-10-15T02:04:45;92742.09;;;9.60;100.00
67499;BME280;54345;42.670;23.218;2022-10-15T02:07:16;92746.41;;;9.74;100.00
67499;BME280;54345;42.670;23.218;2022-10-15T02:15:30;92748.53;;;9.87;100.00
67499;BME280;54345;42.670;23.218;2022-10-15T02:18:24;92752.72;;;9.88;100.00
67499;BME280;54345;42.670;23.218;2022-10-15T02:21:13;92748.38;;;9.74;100.00
67499;BME280;54345;42.670;23.218;2022-10-15T02:26:11;92748.84;;;9.78;100.00
67499;BME280;54345;42.670;23.218;2022-10-15T02:28:41;92757.59;;;9.94;100.00
67499;BME280;54345;42.670;23.218;2022-10-15T02:31:08;92749.91;;;9.69;100.00
67499;BME280;54345;42.670;23.218;2022-10-15T02:33:36;92747.72;;;9.68;100.00
67499;BME280;54345;42.670;23.218;2022-10-15T02:36:03;92748.97;;;9.67;100.00
67499;BME280;54345;42.670;23.218;2022-10-15T02:38:31;92751.63;;;9.72;100.00
67499;BME280;54345;42.670;23.218;2022-10-15T02:40:58;92751.81;;;9.80;100.00
67499;BME280;54345;42.670;23.218;2022-10-15T02:43:24;92754.19;;;9.89;100.00
67499;BME280;54345;42.670;23.218;2022-10-15T02:45:50;92758.31;;;9.71;100.00
67499;BME280;54345;42.670;23.218;2022-10-15T02:48:15;92761.47;;;9.75;100.00
67499;BME280;54345;42.670;23.218;2022-10-15T02:50:41;92758.97;;;9.77;100.00
67499;BME280;54345;42.670;23.218;2022-10-15T02:53:07;92761.66;;;9.83;100.00
67499;BME280;54345;42.670;23.218;2022-10-15T02:55:33;92763.59;;;9.88;100.00
67499;BME280;54345;42.670;23.218;2022-10-15T02:57:58;92751.38;;;9.99;100.00
67499;BME280;54345;42.670;23.218;2022-10-15T03:00:24;92747.72;;;9.92;100.00
67499;BME280;54345;42.670;23.218;2022-10-15T03:02:49;92754.66;;;9.93;100.00
67499;BME280;54345;42.670;23.218;2022-10-15T03:05:15;92746.88;;;10.07;100.00
67499;BME280;54345;42.670;23.218;2022-10-15T03:07:40;92752.06;;;10.05;100.00
67499;BME280;54345;42.670;23.218;2022-10-15T03:10:06;92746.97;;;9.97;100.00
67499;BME280;54345;42.670;23.218;2022-10-15T03:12:32;92741.19;;;10.05;100.00
67499;BME280;54345;42.670;23.218;2022-10-15T03:14:58;92750.41;;;9.97;100.00
67499;BME280;54345;42.670;23.218;2022-10-15T03:17:23;92748.13;;;10.01;100.00
67499;BME280;54345;42.670;23.218;2022-10-15T03:19:49;92749.03;;;9.85;100.00
67499;BME280;54345;42.670;23.218;2022-10-15T03:22:14;92756.38;;;9.90;100.00
67499;BME280;54345;42.670;23.218;2022-10-15T03:24:40;92765.97;;;10.02;100.00
67499;BME280;54345;42.670;23.218;2022-10-15T03:27:06;92762.72;;;10.03;100.00
67499;BME280;54345;42.670;23.218;2022-10-15T03:29:31;92761.66;;;9.83;100.00
67499;BME280;54345;42.670;23.218;2022-10-15T03:31:57;92760.00;;;10.03;100.00
67499;BME280;54345;42.670;23.218;2022-10-15T03:34:22;92756.78;;;10.05;100.00
67499;BME280;54345;42.670;23.218;2022-10-15T03:36:48;92762.91;;;9.82;100.00
67499;BME280;54345;42.670;23.218;2022-10-15T03:39:13;92766.88;;;9.81;100.00
67499;BME280;54345;42.670;23.218;2022-10-15T03:41:39;92769.59;;;9.81;100.00
67499;BME280;54345;42.670;23.218;2022-10-15T03:44:06;92755.44;;;9.88;100.00
67499;BME280;54345;42.670;23.218;2022-10-15T03:46:32;92764.31;;;9.88;100.00
67499;BME280;54345;42.670;23.218;2022-10-15T03:48:58;92763.97;;;10.02;100.00
67499;BME280;54345;42.670;23.218;2022-10-15T03:51:24;92769.03;;;10.17;100.00
67499;BME280;54345;42.670;23.218;2022-10-15T03:53:49;92766.09;;;10.15;100.00
67499;BME280;54345;42.670;23.218;2022-10-15T03:56:15;92770.75;;;9.91;100.00
67499;BME280;54345;42.670;23.218;2022-10-15T03:58:40;92781.53;;;10.01;100.00
67499;BME280;54345;42.670;23.218;2022-10-15T04:01:10;92781.78;;;10.03;100.00
67499;BME280;54345;42.670;23.218;2022-10-15T04:03:36;92769.94;;;9.95;100.00
67499;BME280;54345;42.670;23.218;2022-10-15T04:06:02;92776.81;;;10.07;100.00
67499;BME280;54345;42.670;23.218;2022-10-15T04:08:27;92771.97;;;10.19;100.00
67499;BME280;54345;42.670;23.218;2022-10-15T04:10:53;92772.25;;;10.15;100.00
67499;BME280;54345;42.670;23.218;2022-10-15T04:13:19;92775.16;;;9.93;100.00
67499;BME280;54345;42.670;23.218;2022-10-15T04:15:44;92778.38;;;10.21;100.00
67499;BME280;54345;42.670;23.218;2022-10-15T04:18:10;92780.19;;;10.13;100.00
67499;BME280;54345;42.670;23.218;2022-10-15T04:20:36;92777.94;;;10.17;100.00
67499;BME280;54345;42.670;23.218;2022-10-15T04:23:02;92779.06;;;10.03;100.00
67499;BME280;54345;42.670;23.218;2022-10-15T04:25:27;92786.50;;;10.03;100.00
67499;BME280;54345;42.670;23.218;2022-10-15T04:27:53;92783.72;;;10.08;100.00
67499;BME280;54345;42.670;23.218;2022-10-15T04:30:18;92792.41;;;10.01;100.00
67499;BME280;54345;42.670;23.218;2022-10-15T04:32:44;92776.34;;;9.98;100.00
67499;BME280;54345;42.670;23.218;2022-10-15T04:35:09;92784.22;;;10.07;100.00
67499;BME280;54345;42.670;23.218;2022-10-15T04:37:35;92793.53;;;10.17;100.00
67499;BME280;54345;42.670;23.218;2022-10-15T04:40:01;92798.09;;;10.03;100.00
67499;BME280;54345;42.670;23.218;2022-10-15T04:42:29;92803.00;;;10.10;100.00
67499;BME280;54345;42.670;23.218;2022-10-15T04:44:55;92799.81;;;10.30;100.00
67499;BME280;54345;42.670;23.218;2022-10-15T04:47:21;92795.28;;;10.14;100.00
67499;BME280;54345;42.670;23.218;2022-10-15T04:49:46;92802.75;;;10.08;100.00
67499;BME280;54345;42.670;23.218;2022-10-15T04:52:12;92804.72;;;10.08;100.00
67499;BME280;54345;42.670;23.218;2022-10-15T04:54:37;92806.78;;;10.26;100.00
67499;BME280;54345;42.670;23.218;2022-10-15T04:57:03;92804.00;;;10.07;100.00
67499;BME280;54345;42.670;23.218;2022-10-15T04:59:29;92803.44;;;10.14;100.00
67499;BME280;54345;42.670;23.218;2022-10-15T05:01:55;92801.47;;;10.15;100.00
67499;BME280;54345;42.670;23.218;2022-10-15T05:04:20;92807.78;;;10.28;100.00
67499;BME280;54345;42.670;23.218;2022-10-15T05:06:46;92806.56;;;9.94;100.00
67499;BME280;54345;42.670;23.218;2022-10-15T05:09:12;92808.59;;;10.18;100.00
67499;BME280;54345;42.670;23.218;2022-10-15T05:11:37;92806.31;;;9.93;100.00
67499;BME280;54345;42.670;23.218;2022-10-15T05:14:04;92810.44;;;10.04;100.00
67499;BME280;54345;42.670;23.218;2022-10-15T05:16:30;92806.47;;;10.35;100.00
67499;BME280;54345;42.670;23.218;2022-10-15T05:18:58;92809.69;;;10.09;100.00
67499;BME280;54345;42.670;23.218;2022-10-15T05:21:24;92824.81;;;9.99;100.00
67499;BME280;54345;42.670;23.218;2022-10-15T05:23:50;92829.91;;;10.14;100.00
67499;BME280;54345;42.670;23.218;2022-10-15T05:26:20;92823.94;;;10.45;100.00
67499;BME280;54345;42.670;23.218;2022-10-15T05:28:46;92824.50;;;10.38;100.00
67499;BME280;54345;42.670;23.218;2022-10-15T05:31:14;92831.78;;;10.24;100.00
67499;BME280;54345;42.670;23.218;2022-10-15T05:33:41;92838.44;;;9.99;100.00
67499;BME280;54345;42.670;23.218;2022-10-15T05:36:11;92838.13;;;10.08;100.00
67499;BME280;54345;42.670;23.218;2022-10-15T05:38:37;92834.34;;;10.17;100.00
67499;BME280;54345;42.670;23.218;2022-10-15T05:41:02;92837.22;;;10.24;100.00
67499;BME280;54345;42.670;23.218;2022-10-15T05:43:28;92835.88;;;10.12;100.00
67499;BME280;54345;42.670;23.218;2022-10-15T05:45:54;92845.22;;;10.17;100.00
67499;BME280;54345;42.670;23.218;2022-10-15T05:48:20;92847.03;;;10.09;100.00
67499;BME280;54345;42.670;23.218;2022-10-15T05:50:45;92854.72;;;10.05;100.00
67499;BME280;54345;42.670;23.218;2022-10-15T05:53:11;92847.94;;;10.17;100.00
67499;BME280;54345;42.670;23.218;2022-10-15T05:55:36;92851.22;;;10.39;100.00
67499;BME280;54345;42.670;23.218;2022-10-15T05:58:03;92850.50;;;10.33;100.00
67499;BME280;54345;42.670;23.218;2022-10-15T06:00:28;92850.06;;;10.29;100.00
67499;BME280;54345;42.670;23.218;2022-10-15T06:02:54;92845.59;;;10.02;100.00
67499;BME280;54345;42.670;23.218;2022-10-15T06:05:20;92847.25;;;10.11;100.00
67499;BME280;54345;42.670;23.218;2022-10-15T06:07:45;92849.69;;;10.14;100.00
67499;BME280;54345;42.670;23.218;2022-10-15T06:10:11;92839.63;;;10.33;100.00
67499;BME280;54345;42.670;23.218;2022-10-15T06:12:36;92849.16;;;10.21;100.00
67499;BME280;54345;42.670;23.218;2022-10-15T06:15:04;92853.50;;;10.30;100.00
67499;BME280;54345;42.670;23.218;2022-10-15T06:17:30;92849.75;;;10.38;100.00
67499;BME280;54345;42.670;23.218;2022-10-15T06:19:55;92849.75;;;10.38;100.00
67499;BME280;54345;42.670;23.218;2022-10-15T06:22:21;92852.34;;;10.49;100.00
67499;BME280;54345;42.670;23.218;2022-10-15T06:24:47;92850.19;;;10.42;100.00
67499;BME280;54345;42.670;23.218;2022-10-15T06:27:12;92854.31;;;10.49;100.00
67499;BME280;54345;42.670;23.218;2022-10-15T06:29:38;92852.19;;;10.66;100.00
67499;BME280;54345;42.670;23.218;2022-10-15T06:32:08;92851.84;;;10.75;100.00
67499;BME280;54345;42.670;23.218;2022-10-15T06:34:34;92856.03;;;10.52;100.00
67499;BME280;54345;42.670;23.218;2022-10-15T06:36:59;92862.31;;;10.65;100.00
67499;BME280;54345;42.670;23.218;2022-10-15T06:39:25;92864.81;;;10.63;100.00
67499;BME280;54345;42.670;23.218;2022-10-15T06:41:50;92859.31;;;10.69;100.00
67499;BME280;54345;42.670;23.218;2022-10-15T06:44:16;92863.69;;;10.77;100.00
67499;BME280;54345;42.670;23.218;2022-10-15T06:46:41;92867.44;;;10.74;100.00
67499;BME280;54345;42.670;23.218;2022-10-15T06:49:07;92866.53;;;10.90;100.00
67499;BME280;54345;42.670;23.218;2022-10-15T06:51:32;92867.88;;;11.02;100.00
67499;BME280;54345;42.670;23.218;2022-10-15T06:53:58;92875.50;;;10.61;100.00
67499;BME280;54345;42.670;23.218;2022-10-15T06:56:23;92876.34;;;10.75;100.00
67499;BME280;54345;42.670;23.218;2022-10-15T06:58:49;92875.13;;;11.55;100.00
67499;BME280;54345;42.670;23.218;2022-10-15T07:01:14;92853.22;;;12.29;100.00
67499;BME280;54345;42.670;23.218;2022-10-15T07:03:41;92846.75;;;12.58;100.00
67499;BME280;54345;42.670;23.218;2022-10-15T07:06:08;92852.22;;;12.84;100.00
67499;BME280;54345;42.670;23.218;2022-10-15T07:08:34;92840.69;;;12.91;100.00
67499;BME280;54345;42.670;23.218;2022-10-15T07:11:05;92836.78;;;12.73;100.00
67499;BME280;54345;42.670;23.218;2022-10-15T07:13:31;92832.59;;;12.85;100.00
67499;BME280;54345;42.670;23.218;2022-10-15T07:15:56;92844.84;;;12.09;100.00
67499;BME280;54345;42.670;23.218;2022-10-15T07:18:22;92852.72;;;12.44;100.00
67499;BME280;54345;42.670;23.218;2022-10-15T07:20:48;92837.41;;;12.66;100.00
67499;BME280;54345;42.670;23.218;2022-10-15T07:23:13;92830.81;;;12.88;100.00
67499;BME280;54345;42.670;23.218;2022-10-15T07:25:39;92837.94;;;12.91;100.00
67499;BME280;54345;42.670;23.218;2022-10-15T07:28:05;92837.25;;;12.33;100.00
67499;BME280;54345;42.670;23.218;2022-10-15T07:30:31;92840.44;;;12.63;100.00
67499;BME280;54345;42.670;23.218;2022-10-15T07:32:58;92825.16;;;12.29;100.00
67499;BME280;54345;42.670;23.218;2022-10-15T07:35:27;92832.84;;;12.43;100.00
67499;BME280;54345;42.670;23.218;2022-10-15T07:37:53;92840.22;;;12.48;100.00
67499;BME280;54345;42.670;23.218;2022-10-15T07:40:19;92830.25;;;12.06;100.00
67499;BME280;54345;42.670;23.218;2022-10-15T07:42:51;92829.38;;;11.98;100.00
67499;BME280;54345;42.670;23.218;2022-10-15T07:45:17;92839.38;;;11.77;100.00
67499;BME280;54345;42.670;23.218;2022-10-15T07:47:43;92841.03;;;11.67;100.00
67499;BME280;54345;42.670;23.218;2022-10-15T07:50:09;92836.16;;;12.10;100.00
67499;BME280;54345;42.670;23.218;2022-10-15T07:52:34;92833.81;;;12.01;100.00
67499;BME280;54345;42.670;23.218;2022-10-15T07:55:00;92834.44;;;11.76;100.00
67499;BME280;54345;42.670;23.218;2022-10-15T07:57:25;92850.94;;;11.83;100.00
67499;BME280;54345;42.670;23.218;2022-10-15T07:59:51;92844.00;;;11.82;100.00
67499;BME280;54345;42.670;23.218;2022-10-15T08:02:17;92858.28;;;12.07;100.00
67499;BME280;54345;42.670;23.218;2022-10-15T08:04:43;92844.25;;;12.16;100.00
67499;BME280;54345;42.670;23.218;2022-10-15T08:07:09;92844.50;;;11.99;100.00
67499;BME280;54345;42.670;23.218;2022-10-15T08:09:34;92837.31;;;12.15;100.00
67499;BME280;54345;42.670;23.218;2022-10-15T08:12:00;92842.72;;;11.70;100.00
67499;BME280;54345;42.670;23.218;2022-10-15T08:14:26;92837.63;;;11.80;100.00
67499;BME280;54345;42.670;23.218;2022-10-15T08:16:51;92837.91;;;12.08;100.00
67499;BME280;54345;42.670;23.218;2022-10-15T08:19:17;92831.16;;;11.96;100.00
67499;BME280;54345;42.670;23.218;2022-10-15T08:21:44;92837.97;;;12.21;100.00
67499;BME280;54345;42.670;23.218;2022-10-15T08:24:09;92821.53;;;12.52;100.00
67499;BME280;54345;42.670;23.218;2022-10-15T08:26:35;92823.19;;;12.42;100.00
67499;BME280;54345;42.670;23.218;2022-10-15T08:29:01;92800.81;;;12.31;100.00
67499;BME280;54345;42.670;23.218;2022-10-15T08:31:26;92817.72;;;12.55;100.00
67499;BME280;54345;42.670;23.218;2022-10-15T08:33:52;92815.84;;;12.76;100.00
67499;BME280;54345;42.670;23.218;2022-10-15T08:36:18;92803.75;;;12.71;100.00
67499;BME280;54345;42.670;23.218;2022-10-15T08:38:43;92803.88;;;13.18;100.00
67499;BME280;54345;42.670;23.218;2022-10-15T08:41:37;92809.78;;;12.70;100.00
67499;BME280;54345;42.670;23.218;2022-10-15T08:44:05;92799.81;;;12.98;100.00
67499;BME280;54345;42.670;23.218;2022-10-15T08:46:39;92803.06;;;13.10;100.00
67499;BME280;54345;42.670;23.218;2022-10-15T08:49:13;92805.59;;;12.95;100.00
67499;BME280;54345;42.670;23.218;2022-10-15T08:51:50;92810.28;;;13.20;100.00
67499;BME280;54345;42.670;23.218;2022-10-15T08:54:19;92810.53;;;12.83;100.00
67499;BME280;54345;42.670;23.218;2022-10-15T08:56:49;92804.31;;;12.96;100.00
67499;BME280;54345;42.670;23.218;2022-10-15T08:59:37;92810.53;;;13.56;100.00
67499;BME280;54345;42.670;23.218;2022-10-15T09:02:18;92804.84;;;13.54;100.00
67499;BME280;54345;42.670;23.218;2022-10-15T09:05:00;92806.91;;;13.61;100.00
67499;BME280;54345;42.670;23.218;2022-10-15T09:07:35;92792.94;;;13.18;100.00
67499;BME280;54345;42.670;23.218;2022-10-15T09:10:31;92807.50;;;13.46;100.00
67499;BME280;54345;42.670;23.218;2022-10-15T09:13:06;92800.78;;;13.68;100.00
67499;BME280;54345;42.670;23.218;2022-10-15T09:15:43;92801.00;;;13.70;100.00
67499;BME280;54345;42.670;23.218;2022-10-15T09:18:22;92806.47;;;13.36;100.00
67499;BME280;54345;42.670;23.218;2022-10-15T09:20:49;92790.34;;;13.46;100.00
67499;BME280;54345;42.670;23.218;2022-10-15T09:23:22;92801.88;;;13.65;100.00
67499;BME280;54345;42.670;23.218;2022-10-15T09:31:36;92794.88;;;13.77;100.00
67499;BME280;54345;42.670;23.218;2022-10-15T09:34:18;92792.72;;;13.62;100.00
67499;BME280;54345;42.670;23.218;2022-10-15T09:36:53;92798.72;;;13.61;100.00
67499;BME280;54345;42.670;23.218;2022-10-15T09:39:49;92787.59;;;13.46;100.00
67499;BME280;54345;42.670;23.218;2022-10-15T09:42:33;92794.63;;;13.54;100.00
67499;BME280;54345;42.670;23.218;2022-10-15T09:45:12;92799.97;;;13.93;100.00
67499;BME280;54345;42.670;23.218;2022-10-15T09:47:40;92786.41;;;13.88;100.00
67499;BME280;54345;42.670;23.218;2022-10-15T09:50:09;92793.13;;;14.07;100.00
67499;BME280;54345;42.670;23.218;2022-10-15T09:58:22;92787.59;;;14.00;100.00
67499;BME280;54345;42.670;23.218;2022-10-15T10:01:03;92794.69;;;13.95;100.00
67499;BME280;54345;42.670;23.218;2022-10-15T10:03:31;92783.44;;;14.19;100.00
67499;BME280;54345;42.670;23.218;2022-10-15T10:06:17;92789.34;;;13.90;100.00
67499;BME280;54345;42.670;23.218;2022-10-15T10:08:52;92793.09;;;14.41;100.00
67499;BME280;54345;42.670;23.218;2022-10-15T10:11:20;92796.50;;;14.13;100.00
67499;BME280;54345;42.670;23.218;2022-10-15T10:16:19;92784.47;;;14.37;100.00
67499;BME280;54345;42.670;23.218;2022-10-15T10:19:12;92785.13;;;14.50;100.00
67499;BME280;54345;42.670;23.218;2022-10-15T10:21:39;92780.66;;;14.40;100.00
67499;BME280;54345;42.670;23.218;2022-10-15T10:24:36;92779.41;;;14.41;100.00
67499;BME280;54345;42.670;23.218;2022-10-15T10:27:02;92775.22;;;14.19;100.00
67499;BME280;54345;42.670;23.218;2022-10-15T10:29:28;92774.19;;;14.50;100.00
67499;BME280;54345;42.670;23.218;2022-10-15T10:31:58;92779.78;;;14.73;100.00
67499;BME280;54345;42.670;23.218;2022-10-15T10:34:29;92763.75;;;14.49;100.00
67499;BME280;54345;42.670;23.218;2022-10-15T10:36:56;92777.97;;;15.03;100.00
67499;BME280;54345;42.670;23.218;2022-10-15T10:39:25;92771.75;;;14.75;100.00
67499;BME280;54345;42.670;23.218;2022-10-15T10:41:53;92779.00;;;14.37;100.00
67499;BME280;54345;42.670;23.218;2022-10-15T10:49:35;92765.50;;;14.39;100.00
67499;BME280;54345;42.670;23.218;2022-10-15T10:52:02;92779.25;;;14.05;100.00
67499;BME280;54345;42.670;23.218;2022-10-15T10:54:29;92765.59;;;14.26;100.00
67499;BME280;54345;42.670;23.218;2022-10-15T10:56:58;92769.03;;;14.47;100.00
67499;BME280;54345;42.670;23.218;2022-10-15T10:59:34;92765.50;;;13.77;100.00
67499;BME280;54345;42.670;23.218;2022-10-15T11:02:01;92764.50;;;14.29;100.00
67499;BME280;54345;42.670;23.218;2022-10-15T11:04:33;92762.34;;;14.14;100.00
67499;BME280;54345;42.670;23.218;2022-10-15T11:07:25;92771.78;;;14.47;100.00
67499;BME280;54345;42.670;23.218;2022-10-15T11:10:26;92759.63;;;13.94;100.00
67499;BME280;54345;42.670;23.218;2022-10-15T11:15:48;92759.50;;;14.40;100.00
67499;BME280;54345;42.670;23.218;2022-10-15T11:19:09;92761.22;;;14.10;100.00
67499;BME280;54345;42.670;23.218;2022-10-15T11:22:02;92756.91;;;14.35;100.00
67499;BME280;54345;42.670;23.218;2022-10-15T11:24:43;92764.44;;;14.01;100.00
67499;BME280;54345;42.670;23.218;2022-10-15T11:27:38;92768.13;;;14.24;100.00
67499;BME280;54345;42.670;23.218;2022-10-15T11:30:29;92773.25;;;14.27;100.00
67499;BME280;54345;42.670;23.218;2022-10-15T11:36:35;92759.63;;;14.63;100.00
67499;BME280;54345;42.670;23.218;2022-10-15T11:49:58;92755.56;;;14.84;100.00
67499;BME280;54345;42.670;23.218;2022-10-15T11:52:52;92757.41;;;14.89;100.00
67499;BME280;54345;42.670;23.218;2022-10-15T11:55:45;92749.28;;;15.04;100.00
67499;BME280;54345;42.670;23.218;2022-10-15T11:58:26;92755.50;;;15.12;100.00
67499;BME280;54345;42.670;23.218;2022-10-15T12:00:58;92758.84;;;15.25;100.00
67499;BME280;54345;42.670;23.218;2022-10-15T12:03:26;92755.28;;;15.03;100.00
67499;BME280;54345;42.670;23.218;2022-10-15T12:06:24;92771.47;;;14.86;100.00
67499;BME280;54345;42.670;23.218;2022-10-15T12:08:52;92757.66;;;14.99;100.00
67499;BME280;54345;42.670;23.218;2022-10-15T12:16:45;92748.69;;;14.70;100.00
67499;BME280;54345;42.670;23.218;2022-10-15T12:19:19;92760.16;;;14.89;100.00
67499;BME280;54345;42.670;23.218;2022-10-15T12:32:40;92758.38;;;15.34;100.00
67499;BME280;54345;42.670;23.218;2022-10-15T12:37:46;92734.81;;;14.68;100.00
67499;BME280;54345;42.670;23.218;2022-10-15T12:42:59;92752.22;;;15.14;100.00
67499;BME280;54345;42.670;23.218;2022-10-15T12:45:38;92742.97;;;14.89;100.00
67499;BME280;54345;42.670;23.218;2022-10-15T12:50:34;92744.66;;;14.64;100.00
67499;BME280;54345;42.670;23.218;2022-10-15T12:58:52;92755.72;;;14.79;100.00
67499;BME280;54345;42.670;23.218;2022-10-15T13:11:31;92748.59;;;15.19;100.00
67499;BME280;54345;42.670;23.218;2022-10-15T13:14:01;92737.09;;;14.85;100.00
67499;BME280;54345;42.670;23.218;2022-10-15T13:16:28;92729.59;;;14.85;100.00
67499;BME280;54345;42.670;23.218;2022-10-15T13:18:55;92728.06;;;15.12;100.00
67499;BME280;54345;42.670;23.218;2022-10-15T13:21:29;92732.25;;;14.70;100.00
67499;BME280;54345;42.670;23.218;2022-10-15T13:24:10;92735.38;;;14.67;100.00
67499;BME280;54345;42.670;23.218;2022-10-15T13:26:36;92731.84;;;14.59;100.00
67499;BME280;54345;42.670;23.218;2022-10-15T13:29:01;92736.88;;;14.75;100.00
67499;BME280;54345;42.670;23.218;2022-10-15T13:31:31;92731.06;;;14.86;100.00
67499;BME280;54345;42.670;23.218;2022-10-15T13:36:43;92742.31;;;14.40;100.00
67499;BME280;54345;42.670;23.218;2022-10-15T13:39:32;92750.09;;;14.92;100.00
67499;BME280;54345;42.670;23.218;2022-10-15T13:44:37;92734.63;;;14.66;100.00
67499;BME280;54345;42.670;23.218;2022-10-15T13:47:22;92746.56;;;14.48;100.00
67499;BME280;54345;42.670;23.218;2022-10-15T13:49:49;92729.03;;;14.23;100.00
67499;BME280;54345;42.670;23.218;2022-10-15T13:52:14;92724.56;;;14.33;100.00
67499;BME280;54345;42.670;23.218;2022-10-15T13:54:43;92727.78;;;14.24;100.00
67499;BME280;54345;42.670;23.218;2022-10-15T13:57:13;92743.59;;;14.67;100.00
67499;BME280;54345;42.670;23.218;2022-10-15T13:59:43;92749.00;;;14.59;100.00
67499;BME280;54345;42.670;23.218;2022-10-15T14:02:10;92729.09;;;14.59;100.00
67499;BME280;54345;42.670;23.218;2022-10-15T14:04:37;92731.63;;;14.29;100.00
67499;BME280;54345;42.670;23.218;2022-10-15T14:07:20;92738.72;;;14.45;100.00
67499;BME280;54345;42.670;23.218;2022-10-15T14:09:46;92730.56;;;14.32;100.00
67499;BME280;54345;42.670;23.218;2022-10-15T14:12:12;92728.84;;;14.77;100.00
67499;BME280;54345;42.670;23.218;2022-10-15T14:14:39;92728.16;;;14.28;100.00
67499;BME280;54345;42.670;23.218;2022-10-15T14:19:48;92724.59;;;14.41;100.00
67499;BME280;54345;42.670;23.218;2022-10-15T14:22:17;92726.66;;;14.48;100.00
67499;BME280;54345;42.670;23.218;2022-10-15T14:24:51;92735.38;;;14.39;100.00
67499;BME280;54345;42.670;23.218;2022-10-15T14:27:26;92731.63;;;14.29;100.00
67499;BME280;54345;42.670;23.218;2022-10-15T14:29:58;92728.09;;;14.41;100.00
67499;BME280;54345;42.670;23.218;2022-10-15T14:32:25;92731.72;;;14.44;100.00
67499;BME280;54345;42.670;23.218;2022-10-15T14:34:55;92731.19;;;14.17;100.00
67499;BME280;54345;42.670;23.218;2022-10-15T14:37:39;92731.97;;;13.84;100.00
67499;BME280;54345;42.670;23.218;2022-10-15T14:43:00;92744.84;;;13.56;100.00